Time;durP1;ratioP1;P1;durP2;ratioP2;P2;SDS_P1;SDS_P2;PMS_P1;PMS_P2;Temp;Humidity;BMP_temperature;BMP_pressure;BME280_temperature;BME280_humidity;BME280_pressure;Samples;Min_cycle;Max_cycle;Signal;HPM_P1;HPM_P2
2022/06/17 00:01:10;;;;;;;12.05;8.95;;;14.30;99.90;;;;;;4988091;28;20045;-89
2022/06/17 00:03:36;;;;;;;10.88;8.75;;;14.30;99.90;;;;;;4990803;28;20046;-89
2022/06/17 00:06:03;;;;;;;11.45;8.45;;;14.30;99.90;;;;;;4975612;28;20058;-89
2022/06/17 00:08:36;;;;;;;10.10;8.30;;;14.20;99.90;;;;;;4990272;28;20498;-90
2022/06/17 00:11:02;;;;;;;13.00;9.52;;;14.20;99.90;;;;;;4977450;28;20125;-88
2022/06/17 00:13:28;;;;;;;11.90;9.18;;;14.20;99.90;;;;;;4976177;28;20042;-89
2022/06/17 00:15:54;;;;;;;12.15;8.63;;;14.20;99.90;;;;;;5002630;28;20042;-89
2022/06/17 00:18:23;;;;;;;11.73;8.63;;;14.20;99.90;;;;;;4992119;28;20096;-89
2022/06/17 00:20:49;;;;;;;10.75;8.85;;;14.20;99.90;;;;;;4976603;28;20047;-89
2022/06/17 00:23:18;;;;;;;10.73;8.05;;;14.10;99.90;;;;;;4993331;28;20042;-89
2022/06/17 00:25:46;;;;;;;10.43;8.30;;;14.20;99.90;;;;;;4974295;28;20095;-89
2022/06/17 00:28:18;;;;;;;9.35;7.85;;;14.20;99.90;;;;;;4991260;28;20051;-90
2022/06/17 00:30:46;;;;;;;12.38;8.43;;;14.10;99.90;;;;;;4975621;28;20434;-90
2022/06/17 00:33:13;;;;;;;10.57;8.30;;;14.10;99.90;;;;;;4975611;28;20042;-89
2022/06/17 00:35:51;;;;;;;11.23;8.05;;;14.10;99.90;;;;;;5005478;28;20057;-89
2022/06/17 00:38:25;;;;;;;12.00;8.07;;;14.10;99.90;;;;;;4991691;28;20082;-89
2022/06/17 00:40:52;;;;;;;10.60;8.57;;;14.00;99.90;;;;;;5000153;28;20104;-89
2022/06/17 00:43:37;;;;;;;11.65;8.90;;;14.00;99.90;;;;;;4994849;28;20549;-89
2022/06/17 00:46:26;;;;;;;11.63;9.35;;;14.00;99.90;;;;;;4993573;28;20113;-89
2022/06/17 00:49:03;;;;;;;11.70;9.48;;;14.00;99.90;;;;;;4990749;28;20174;-89
2022/06/17 00:51:38;;;;;;;10.25;8.93;;;14.00;99.90;;;;;;4990795;28;20096;-89
2022/06/17 00:54:14;;;;;;;11.50;9.52;;;14.00;99.90;;;;;;4990471;28;20049;-89
2022/06/17 00:56:40;;;;;;;11.15;9.07;;;14.00;99.90;;;;;;4974074;28;20169;-88
2022/06/17 00:59:15;;;;;;;11.32;9.20;;;13.90;99.90;;;;;;4991274;28;20133;-89
2022/06/17 01:02:01;;;;;;;10.75;9.15;;;14.00;99.90;;;;;;4990656;28;20129;-89
2022/06/17 01:04:32;;;;;;;11.52;8.93;;;14.00;99.90;;;;;;4973803;28;20454;-89
2022/06/17 01:07:13;;;;;;;11.57;8.48;;;13.90;99.90;;;;;;4986457;28;20069;-89
2022/06/17 01:09:57;;;;;;;11.70;9.02;;;13.90;99.90;;;;;;4992591;28;20085;-89
2022/06/17 01:12:33;;;;;;;11.95;9.93;;;13.90;99.90;;;;;;4989303;28;20514;-89
2022/06/17 01:14:59;;;;;;;11.70;9.57;;;13.90;99.90;;;;;;4992014;28;20089;-89
2022/06/17 01:17:26;;;;;;;11.90;9.60;;;13.90;99.90;;;;;;4974061;28;20069;-89
2022/06/17 01:20:00;;;;;;;12.60;10.25;;;13.90;99.90;;;;;;4991335;28;20049;-89
2022/06/17 01:22:26;;;;;;;13.07;10.70;;;13.90;99.90;;;;;;4992874;28;20050;-89
2022/06/17 01:25:12;;;;;;;11.40;10.10;;;13.90;99.90;;;;;;4973315;28;20054;-89
2022/06/17 01:27:42;;;;;;;12.90;10.57;;;13.90;99.90;;;;;;4975684;28;20047;-89
2022/06/17 01:30:12;;;;;;;12.35;10.93;;;13.80;99.90;;;;;;4990677;28;20081;-89
2022/06/17 01:32:57;;;;;;;12.85;11.02;;;13.80;99.90;;;;;;4991766;28;20078;-89
2022/06/17 01:35:27;;;;;;;12.55;10.68;;;13.80;99.90;;;;;;4988712;28;20161;-89
2022/06/17 01:37:54;;;;;;;13.68;10.82;;;13.70;99.90;;;;;;4990089;28;20387;-89
2022/06/17 01:40:20;;;;;;;13.50;12.10;;;13.70;99.90;;;;;;4990113;28;20053;-90
2022/06/17 01:42:47;;;;;;;13.27;11.65;;;13.80;99.90;;;;;;4990017;28;20046;-90
2022/06/17 01:45:13;;;;;;;13.73;11.18;;;13.80;99.90;;;;;;4991630;28;20042;-89
2022/06/17 01:47:42;;;;;;;12.80;11.35;;;13.70;99.90;;;;;;4992356;28;20041;-89
2022/06/17 01:50:20;;;;;;;14.02;11.40;;;13.70;99.90;;;;;;5004283;28;20125;-89
2022/06/17 01:52:54;;;;;;;12.75;11.15;;;13.70;99.90;;;;;;4974547;28;20042;-89
2022/06/17 01:55:40;;;;;;;13.68;11.95;;;13.70;99.90;;;;;;4990842;28;20085;-89
2022/06/17 01:58:28;;;;;;;13.73;11.90;;;13.70;99.90;;;;;;4989862;28;20042;-89
2022/06/17 02:00:55;;;;;;;13.60;11.70;;;13.70;99.90;;;;;;4991462;28;20053;-89
2022/06/17 02:03:28;;;;;;;12.98;11.63;;;13.70;99.90;;;;;;4994335;28;20410;-90
2022/06/17 02:06:19;;;;;;;13.73;12.23;;;13.70;99.90;;;;;;4991542;28;20045;-90
2022/06/17 02:08:45;;;;;;;12.85;11.07;;;13.70;99.90;;;;;;4948240;29;20064;-90
2022/06/17 02:11:12;;;;;;;13.02;11.18;;;13.60;99.90;;;;;;4918159;29;20098;-90
2022/06/17 02:13:39;;;;;;;12.70;11.40;;;13.70;99.90;;;;;;4949603;29;20126;-89
2022/06/17 02:16:06;;;;;;;14.63;11.38;;;13.70;99.90;;;;;;4933204;29;20054;-90
2022/06/17 02:18:33;;;;;;;14.10;11.35;;;13.60;99.90;;;;;;4936349;29;20210;-89
2022/06/17 02:21:04;;;;;;;14.18;11.80;;;13.70;99.90;;;;;;4949660;29;20062;-89
2022/06/17 02:23:31;;;;;;;13.63;11.50;;;13.60;99.90;;;;;;4932253;29;20062;-90
2022/06/17 02:25:58;;;;;;;13.25;11.70;;;13.60;99.90;;;;;;4933151;29;20059;-89
2022/06/17 02:28:27;;;;;;;13.98;12.18;;;13.70;99.90;;;;;;4916805;29;20566;-89
2022/06/17 02:30:53;;;;;;;14.02;11.88;;;13.60;99.90;;;;;;4949924;29;20106;-90
2022/06/17 02:33:19;;;;;;;14.80;12.07;;;13.60;99.90;;;;;;4938994;28;20480;-90
2022/06/17 02:35:54;;;;;;;13.18;11.57;;;13.60;99.90;;;;;;4933344;29;20047;-89
2022/06/17 02:38:25;;;;;;;13.88;12.27;;;13.60;99.90;;;;;;4932069;29;20087;-90
2022/06/17 02:40:53;;;;;;;13.85;11.95;;;13.60;99.90;;;;;;4918218;29;20456;-90
2022/06/17 02:43:25;;;;;;;13.02;11.48;;;13.50;99.90;;;;;;4933952;29;20043;-90
2022/06/17 02:46:14;;;;;;;13.75;11.45;;;13.50;99.90;;;;;;4952706;28;20055;-89
2022/06/17 02:48:46;;;;;;;12.85;11.55;;;13.50;99.90;;;;;;5005569;28;20096;-89
2022/06/17 02:51:13;;;;;;;12.98;11.57;;;13.50;99.90;;;;;;4995522;28;20057;-89
2022/06/17 02:53:40;;;;;;;13.25;11.82;;;13.50;99.90;;;;;;4988413;28;20050;-90
2022/06/17 02:56:14;;;;;;;14.60;11.32;;;13.50;99.90;;;;;;4972748;28;20038;-89
2022/06/17 02:58:55;;;;;;;13.02;11.10;;;13.40;99.90;;;;;;4972739;28;20080;-89
2022/06/17 03:01:24;;;;;;;13.15;11.60;;;13.50;99.90;;;;;;4987969;28;20050;-90
2022/06/17 03:03:53;;;;;;;12.82;11.25;;;13.40;99.90;;;;;;4989365;28;20365;-88
2022/06/17 03:06:25;;;;;;;13.70;11.43;;;13.40;99.90;;;;;;4988314;28;20097;-90
2022/06/17 03:08:52;;;;;;;14.35;11.70;;;13.50;99.90;;;;;;4989210;28;20116;-89
2022/06/17 03:11:19;;;;;;;14.48;11.77;;;13.50;99.90;;;;;;4972726;28;20041;-90
2022/06/17 03:13:50;;;;;;;12.55;11.13;;;13.50;99.90;;;;;;4988619;28;20108;-89
2022/06/17 03:16:16;;;;;;;12.77;11.43;;;13.50;99.90;;;;;;4971721;28;20042;-89
2022/06/17 03:18:46;;;;;;;15.25;11.30;;;13.50;99.90;;;;;;4991391;28;20042;-89
2022/06/17 03:21:12;;;;;;;13.82;11.32;;;13.50;99.90;;;;;;4997371;28;20411;-89
2022/06/17 03:24:01;;;;;;;12.98;10.85;;;13.50;99.90;;;;;;4988654;28;20057;-88
2022/06/17 03:26:31;;;;;;;12.63;10.85;;;13.50;99.90;;;;;;4956789;28;20085;-89
2022/06/17 03:29:01;;;;;;;13.73;11.50;;;13.50;99.90;;;;;;4990313;28;20045;-89
2022/06/17 03:31:40;;;;;;;14.75;10.98;;;13.50;99.90;;;;;;4972249;28;20030;-89
2022/06/17 03:34:14;;;;;;;13.35;11.10;;;13.60;99.90;;;;;;4998759;28;20152;-88
2022/06/17 03:36:45;;;;;;;13.40;10.70;;;13.60;99.90;;;;;;4991068;28;20054;-89
2022/06/17 03:39:18;;;;;;;14.05;10.63;;;13.60;99.90;;;;;;4990128;28;20057;-89
2022/06/17 03:41:55;;;;;;;12.95;10.43;;;13.70;99.90;;;;;;4990358;28;20108;-89
2022/06/17 03:44:26;;;;;;;13.18;10.90;;;13.70;99.90;;;;;;4990514;28;20108;-89
2022/06/17 03:47:04;;;;;;;11.68;10.32;;;13.80;99.90;;;;;;5008674;28;20050;-89
2022/06/17 03:49:54;;;;;;;13.70;10.63;;;13.80;99.90;;;;;;5009673;28;20054;-89
2022/06/17 03:52:45;;;;;;;13.97;11.87;;;13.90;99.90;;;;;;4980339;28;20038;-89
2022/06/17 03:55:15;;;;;;;13.98;11.15;;;13.90;99.90;;;;;;4972123;28;20054;-89
2022/06/17 03:57:47;;;;;;;15.35;11.35;;;14.10;99.90;;;;;;4987968;28;20039;-89
2022/06/17 04:00:24;;;;;;;14.35;11.48;;;14.10;99.90;;;;;;4988849;28;20434;-89
2022/06/17 04:02:51;;;;;;;14.43;11.18;;;14.20;99.90;;;;;;4988902;28;20387;-89
2022/06/17 04:05:20;;;;;;;14.73;11.68;;;14.30;99.90;;;;;;4991019;28;20050;-89
2022/06/17 04:07:47;;;;;;;15.02;12.25;;;14.40;99.90;;;;;;4988152;28;20042;-88
2022/06/17 04:10:28;;;;;;;12.80;10.77;;;14.40;99.90;;;;;;4987868;28;20042;-89
2022/06/17 04:12:54;;;;;;;15.35;12.40;;;14.50;99.90;;;;;;4953126;28;20061;-89
2022/06/17 04:15:48;;;;;;;14.80;13.10;;;14.60;99.90;;;;;;4976650;28;20117;-89
2022/06/17 04:18:13;;;;;;;15.65;13.68;;;14.70;99.90;;;;;;4993474;28;20047;-89
2022/06/17 04:20:46;;;;;;;15.35;13.38;;;14.80;99.90;;;;;;4986343;28;20045;-90
2022/06/17 04:23:21;;;;;;;14.43;12.73;;;15.00;99.90;;;;;;4969594;28;20364;-89
2022/06/17 04:26:17;;;;;;;15.93;13.38;;;15.10;99.90;;;;;;4973477;28;20105;-90
2022/06/17 04:28:52;;;;;;;18.58;16.58;;;15.20;99.90;;;;;;4977041;28;20057;-89
2022/06/17 04:31:24;;;;;;;17.45;15.65;;;15.30;99.90;;;;;;4999460;28;20426;-89
2022/06/17 04:33:53;;;;;;;16.00;13.63;;;15.30;99.90;;;;;;4995531;28;20061;-89
2022/06/17 04:36:24;;;;;;;16.20;14.50;;;15.40;99.90;;;;;;4987600;28;20486;-89
2022/06/17 04:38:58;;;;;;;15.93;13.95;;;15.40;99.90;;;;;;4989618;28;20050;-90
2022/06/17 04:41:29;;;;;;;16.25;14.63;;;15.40;99.90;;;;;;4988578;28;20043;-89
2022/06/17 04:43:58;;;;;;;15.57;14.07;;;15.50;99.90;;;;;;4988184;28;20042;-89
2022/06/17 04:46:32;;;;;;;15.60;14.00;;;15.50;99.90;;;;;;4985295;28;20093;-89
2022/06/17 04:48:59;;;;;;;16.08;14.02;;;15.60;99.90;;;;;;4989259;28;20100;-89
2022/06/17 04:51:27;;;;;;;16.20;14.55;;;15.60;99.90;;;;;;4974590;28;20042;-90
2022/06/17 04:53:54;;;;;;;15.98;14.18;;;15.60;99.90;;;;;;4990453;28;21241;-89
2022/06/17 04:56:28;;;;;;;15.93;14.23;;;15.70;99.90;;;;;;4974772;28;20125;-89
2022/06/17 04:58:53;;;;;;;14.98;13.25;;;15.70;99.90;;;;;;4991405;28;20487;-89
2022/06/17 05:01:21;;;;;;;14.50;12.75;;;15.70;99.90;;;;;;4988709;28;20057;-89
2022/06/17 05:03:47;;;;;;;16.52;13.75;;;15.80;99.90;;;;;;4989479;28;20046;-93
2022/06/17 05:06:13;;;;;;;15.13;13.45;;;15.90;99.90;;;;;;4975476;28;20058;-90
2022/06/17 05:08:43;;;;;;;17.15;13.88;;;15.90;99.90;;;;;;4990122;28;20054;-91
2022/06/17 05:11:30;;;;;;;14.35;12.73;;;15.90;99.90;;;;;;4990557;28;20130;-91
2022/06/17 05:14:09;;;;;;;16.95;13.57;;;15.90;99.90;;;;;;4991961;28;20499;-91
2022/06/17 05:16:35;;;;;;;15.45;12.77;;;16.00;99.90;;;;;;4989825;28;20495;-94
2022/06/17 05:19:00;;;;;;;14.88;12.77;;;16.10;99.90;;;;;;4989140;28;20045;-91
2022/06/17 05:21:26;;;;;;;14.52;12.88;;;16.10;99.90;;;;;;4993414;28;20061;-90
2022/06/17 05:23:55;;;;;;;14.50;12.98;;;16.20;99.90;;;;;;4991471;28;20048;-90
2022/06/17 05:26:21;;;;;;;15.00;13.38;;;16.20;99.90;;;;;;4990817;28;20090;-90
2022/06/17 05:28:47;;;;;;;13.95;11.77;;;16.30;99.90;;;;;;4974364;28;20081;-91
2022/06/17 05:31:21;;;;;;;14.40;12.90;;;16.30;99.90;;;;;;4990635;28;20092;-90
2022/06/17 05:33:47;;;;;;;15.40;13.65;;;16.40;99.90;;;;;;4988920;28;20053;-92
2022/06/17 05:36:13;;;;;;;13.35;11.95;;;16.50;99.90;;;;;;4990370;28;20410;-92
2022/06/17 05:38:39;;;;;;;14.57;12.48;;;16.40;99.90;;;;;;4980165;28;20042;-91
2022/06/17 05:41:17;;;;;;;14.00;12.40;;;16.50;99.90;;;;;;5010224;28;20490;-94
2022/06/17 05:43:43;;;;;;;13.50;11.90;;;16.50;99.90;;;;;;5010026;28;20050;-92
2022/06/17 05:46:08;;;;;;;15.05;12.05;;;16.50;99.90;;;;;;4979359;28;20072;-92
2022/06/17 05:48:34;;;;;;;14.30;11.77;;;16.50;99.90;;;;;;4989467;28;20376;-91
2022/06/17 05:51:01;;;;;;;12.95;11.32;;;16.70;99.90;;;;;;4972770;28;20045;-91
2022/06/17 05:53:26;;;;;;;13.85;12.25;;;16.70;99.90;;;;;;4990104;28;20093;-91
2022/06/17 05:55:54;;;;;;;14.77;12.85;;;16.80;99.90;;;;;;4973513;28;20042;-91
2022/06/17 05:58:20;;;;;;;13.63;11.85;;;16.80;99.90;;;;;;4991476;28;20042;-91
2022/06/17 06:00:46;;;;;;;13.43;12.02;;;16.80;99.90;;;;;;4972018;28;20402;-91
2022/06/17 06:03:18;;;;;;;13.57;11.80;;;16.90;99.90;;;;;;4993820;28;20069;-92
2022/06/17 06:05:44;;;;;;;14.90;12.52;;;16.90;99.90;;;;;;4989107;28;20254;-91
2022/06/17 06:08:09;;;;;;;14.93;12.57;;;17.00;99.90;;;;;;4974241;28;20097;-91
2022/06/17 06:10:36;;;;;;;13.68;11.82;;;17.00;99.90;;;;;;4989642;28;20053;-91
2022/06/17 06:13:03;;;;;;;14.02;11.32;;;17.10;99.90;;;;;;4973355;28;20125;-92
2022/06/17 06:15:31;;;;;;;13.75;11.38;;;17.20;99.90;;;;;;4989808;28;20084;-94
2022/06/17 06:17:56;;;;;;;13.07;11.23;;;17.10;99.90;;;;;;4990242;28;20066;-91
2022/06/17 06:20:22;;;;;;;12.18;10.85;;;17.20;99.90;;;;;;4969309;28;20038;-90
2022/06/17 06:22:48;;;;;;;14.30;10.90;;;17.20;99.90;;;;;;4969978;28;20469;-91
2022/06/17 06:25:16;;;;;;;15.43;11.23;;;17.20;99.90;;;;;;4987625;28;20062;-92
2022/06/17 06:27:42;;;;;;;13.95;10.60;;;17.30;99.90;;;;;;4983662;28;20445;-92
2022/06/17 06:30:20;;;;;;;13.93;10.55;;;17.30;99.90;;;;;;4987858;28;20053;-91
2022/06/17 06:32:56;;;;;;;12.98;10.75;;;17.40;99.90;;;;;;4980569;28;20122;-91
2022/06/17 06:35:24;;;;;;;12.75;11.02;;;17.50;99.90;;;;;;4986907;28;20042;-92
2022/06/17 06:37:50;;;;;;;13.15;10.93;;;17.50;99.90;;;;;;4999019;28;20050;-92
2022/06/17 06:40:17;;;;;;;11.75;10.50;;;17.50;99.90;;;;;;4995115;28;20050;-92
2022/06/17 06:42:43;;;;;;;13.25;11.32;;;17.70;99.90;;;;;;4997905;28;20042;-90
2022/06/17 06:45:17;;;;;;;14.70;11.43;;;17.70;99.90;;;;;;4999561;28;20042;-93
2022/06/17 06:47:45;;;;;;;13.73;12.20;;;17.80;99.90;;;;;;4983073;28;20050;-93
2022/06/17 06:50:13;;;;;;;13.75;12.18;;;17.90;99.90;;;;;;4998254;28;20089;-95
2022/06/17 06:52:39;;;;;;;13.35;11.93;;;18.00;99.90;;;;;;4983128;28;20042;-94
2022/06/17 06:55:05;;;;;;;13.02;11.63;;;18.10;99.90;;;;;;4983321;28;20185;-95
2022/06/17 06:57:31;;;;;;;14.32;11.77;;;18.30;99.90;;;;;;4982014;28;20038;-94
2022/06/17 07:00:03;;;;;;;14.82;11.80;;;18.40;99.90;;;;;;4995146;28;20043;-93
2022/06/17 07:02:28;;;;;;;14.05;11.57;;;18.50;99.90;;;;;;4975373;28;20042;-93
2022/06/17 07:04:54;;;;;;;14.85;12.30;;;18.70;99.90;;;;;;5000935;28;20121;-95
2022/06/17 07:07:19;;;;;;;13.88;11.13;;;18.80;99.90;;;;;;4999636;28;20096;-94
2022/06/17 07:09:45;;;;;;;13.38;11.82;;;18.90;99.90;;;;;;4977744;28;20068;-94
2022/06/17 07:12:10;;;;;;;12.57;11.18;;;19.00;99.90;;;;;;4990082;28;20038;-92
2022/06/17 07:14:36;;;;;;;13.05;11.65;;;19.20;99.90;;;;;;4989946;28;20039;-92
2022/06/17 07:17:02;;;;;;;13.05;11.00;;;19.20;99.90;;;;;;4971544;28;20053;-92
2022/06/17 07:19:27;;;;;;;14.30;11.10;;;19.30;99.90;;;;;;4987178;28;20049;-93
2022/06/17 07:21:53;;;;;;;13.07;10.93;;;19.30;99.90;;;;;;4973264;28;20073;-93
2022/06/17 07:24:18;;;;;;;12.75;9.85;;;19.40;99.90;;;;;;4988727;28;20482;-92
2022/06/17 07:26:44;;;;;;;13.27;10.60;;;19.50;99.90;;;;;;4972364;28;20074;-93
2022/06/17 07:29:10;;;;;;;13.23;9.88;;;19.50;99.90;;;;;;4972748;28;20096;-93
2022/06/17 07:31:35;;;;;;;13.63;10.73;;;19.60;99.90;;;;;;4987079;28;20043;-94
2022/06/17 07:34:01;;;;;;;12.95;10.57;;;19.60;99.90;;;;;;4985047;28;20034;-93
2022/06/17 07:41:58;;;;;;;11.23;9.60;;;19.90;99.90;;;;;;4987438;28;20494;-92
2022/06/17 07:44:24;;;;;;;13.00;9.85;;;19.90;99.90;;;;;;4988009;28;20046;-94
2022/06/17 07:46:50;;;;;;;12.68;10.00;;;19.90;99.90;;;;;;4973030;28;20049;-94
2022/06/17 07:49:16;;;;;;;11.32;9.80;;;19.90;99.90;;;;;;4990809;28;20399;-93
2022/06/17 07:51:42;;;;;;;12.27;8.82;;;20.00;99.90;;;;;;4981919;28;20050;-94
2022/06/17 07:54:07;;;;;;;12.35;8.90;;;20.10;99.90;;;;;;4977370;28;20103;-93
2022/06/17 07:56:33;;;;;;;11.55;9.20;;;20.40;99.90;;;;;;4988788;28;20046;-92
2022/06/17 07:58:58;;;;;;;10.85;8.25;;;20.60;99.90;;;;;;4973309;28;20483;-94
2022/06/17 08:01:24;;;;;;;10.77;7.97;;;20.80;99.90;;;;;;4989206;28;21266;-95
2022/06/17 08:03:50;;;;;;;11.80;8.52;;;20.90;99.90;;;;;;4993458;28;20046;-92
2022/06/17 08:06:16;;;;;;;9.93;7.72;;;21.00;99.90;;;;;;4993653;28;20105;-96
2022/06/17 08:08:43;;;;;;;10.38;7.38;;;21.10;99.90;;;;;;4977143;28;20358;-94
2022/06/17 08:11:10;;;;;;;11.70;8.15;;;21.20;99.90;;;;;;4985412;28;20055;-93
2022/06/17 08:13:36;;;;;;;11.40;8.18;;;21.20;99.90;;;;;;4972078;28;20135;-95
2022/06/17 08:16:06;;;;;;;10.93;8.45;;;21.20;99.90;;;;;;4977303;28;20042;-94
2022/06/17 08:18:32;;;;;;;11.65;8.82;;;21.30;99.90;;;;;;4996949;28;20053;-93
2022/06/17 08:20:58;;;;;;;11.15;8.68;;;21.40;99.90;;;;;;5010287;28;20064;-94
2022/06/17 08:23:24;;;;;;;10.93;8.32;;;21.50;99.90;;;;;;4993693;28;20041;-94
2022/06/17 08:25:50;;;;;;;11.45;8.63;;;21.60;99.90;;;;;;4993990;28;20094;-95
2022/06/17 08:28:17;;;;;;;11.02;8.23;;;21.70;99.90;;;;;;4994604;28;20045;-93
2022/06/17 08:30:47;;;;;;;10.65;8.40;;;21.70;99.90;;;;;;4995347;28;20054;-94
2022/06/17 08:33:13;;;;;;;12.20;8.40;;;21.80;99.90;;;;;;4978113;28;20086;-95
2022/06/17 08:35:42;;;;;;;11.45;8.65;;;21.90;99.90;;;;;;4992807;28;20450;-95
2022/06/17 08:38:17;;;;;;;11.48;9.25;;;21.90;99.90;;;;;;4990675;28;20043;-96
2022/06/17 08:40:52;;;;;;;11.48;8.60;;;21.90;99.90;;;;;;4979660;28;20053;-94
2022/06/17 08:43:36;;;;;;;11.02;8.25;;;22.00;99.90;;;;;;4984681;28;20486;-93
2022/06/17 08:46:13;;;;;;;12.27;8.35;;;22.10;99.90;;;;;;4974641;28;20133;-93
2022/06/17 08:49:15;;;;;;;10.70;8.30;;;22.10;99.90;;;;;;4996940;28;20503;-94
2022/06/17 08:52:00;;;;;;;11.20;8.27;;;22.20;99.90;;;;;;4990829;28;20043;-93
2022/06/17 08:54:35;;;;;;;10.45;7.63;;;22.30;99.90;;;;;;4937991;28;20381;-92
2022/06/17 08:57:16;;;;;;;10.90;6.75;;;22.50;99.90;;;;;;5002094;28;20038;-91
2022/06/17 09:00:17;;;;;;;8.85;5.22;;;22.50;99.90;;;;;;5011180;28;20042;-90
2022/06/17 09:03:13;;;;;;;9.70;5.13;;;22.60;99.90;;;;;;5011049;28;20045;-91
2022/06/17 09:05:41;;;;;;;8.40;4.95;;;22.60;99.90;;;;;;5010657;28;20042;-91
2022/06/17 09:08:46;;;;;;;7.85;5.05;;;22.60;99.90;;;;;;5010520;28;20092;-88
2022/06/17 09:11:19;;;;;;;10.60;4.90;;;22.50;99.90;;;;;;4962196;28;20121;-94
2022/06/17 09:14:16;;;;;;;9.23;4.78;;;22.40;99.90;;;;;;4991710;28;20053;-92
2022/06/17 09:17:06;;;;;;;10.27;5.38;;;22.40;99.90;;;;;;4993517;28;20068;-92
2022/06/17 09:19:35;;;;;;;9.75;4.70;;;22.40;99.90;;;;;;4976156;28;20402;-91
2022/06/17 09:22:28;;;;;;;8.15;4.88;;;22.50;99.90;;;;;;4991445;28;20046;-92
2022/06/17 09:24:58;;;;;;;10.43;4.15;;;22.60;99.90;;;;;;4973797;28;20048;-93
2022/06/17 09:27:45;;;;;;;8.48;4.80;;;22.60;99.90;;;;;;4998275;28;20403;-91
2022/06/17 09:30:20;;;;;;;8.50;4.30;;;22.60;99.90;;;;;;5013092;28;20053;-94
2022/06/17 09:33:06;;;;;;;9.10;4.35;;;22.80;99.90;;;;;;4998395;28;20041;-92
2022/06/17 09:35:36;;;;;;;7.45;3.95;;;22.90;99.90;;;;;;5001442;28;20046;-94
2022/06/17 09:38:13;;;;;;;8.93;4.53;;;23.10;99.90;;;;;;5000291;28;20038;-95
2022/06/17 09:40:50;;;;;;;8.30;4.55;;;23.20;99.90;;;;;;4996141;28;20047;-94
2022/06/17 09:43:52;;;;;;;9.35;5.13;;;23.30;99.90;;;;;;4972597;28;20071;-91
2022/06/17 09:46:26;;;;;;;9.00;5.20;;;23.40;99.90;;;;;;4930244;28;20050;-94
2022/06/17 09:48:52;;;;;;;8.73;5.00;;;23.30;99.90;;;;;;4971722;28;20042;-94
2022/06/17 09:51:39;;;;;;;8.00;4.45;;;23.30;99.90;;;;;;4984186;28;20050;-94
2022/06/17 09:54:31;;;;;;;12.00;6.00;;;23.30;99.90;;;;;;4988482;28;20069;-90
2022/06/17 09:57:01;;;;;;;12.65;5.05;;;23.40;99.90;;;;;;4975521;28;20108;-93
2022/06/17 09:59:35;;;;;;;9.13;5.18;;;23.50;99.90;;;;;;4992180;28;20054;-94
2022/06/17 10:02:30;;;;;;;8.93;4.95;;;23.60;99.90;;;;;;4991124;28;20046;-92
2022/06/17 10:04:57;;;;;;;8.98;5.00;;;23.70;99.90;;;;;;4985236;28;20146;-94
2022/06/17 10:07:39;;;;;;;9.55;4.85;;;23.80;99.90;;;;;;4995234;28;20051;-91
2022/06/17 10:10:26;;;;;;;8.15;4.80;;;23.80;99.90;;;;;;4980858;28;20046;-92
2022/06/17 10:13:30;;;;;;;8.73;5.00;;;23.80;99.90;;;;;;4991749;28;20049;-94
2022/06/17 10:19:43;;;;;;;8.77;4.80;;;23.80;99.90;;;;;;4985963;28;20080;-94
2022/06/17 10:22:48;;;;;;;8.23;5.40;;;23.90;99.90;;;;;;4987463;28;20058;-94
2022/06/17 10:25:32;;;;;;;9.27;5.57;;;24.00;99.90;;;;;;4994860;28;20066;-95
2022/06/17 10:28:19;;;;;;;10.25;4.70;;;24.10;99.90;;;;;;4990201;28;20058;-92
2022/06/17 10:30:59;;;;;;;7.78;4.85;;;24.20;99.90;;;;;;4972821;28;20057;-91
2022/06/17 10:33:29;;;;;;;8.70;5.03;;;24.20;99.90;;;;;;4990590;28;20038;-90
2022/06/17 10:35:55;;;;;;;8.80;4.60;;;24.30;99.90;;;;;;4988407;28;20070;-90
2022/06/17 10:38:26;;;;;;;8.32;4.65;;;24.30;99.90;;;;;;4972402;28;20050;-91
2022/06/17 10:40:51;;;;;;;8.27;4.75;;;24.40;99.90;;;;;;4988173;28;20042;-90
2022/06/17 10:43:21;;;;;;;8.43;4.68;;;24.40;99.90;;;;;;4987471;28;20058;-88
2022/06/17 10:45:49;;;;;;;10.07;5.05;;;24.40;99.90;;;;;;4988050;28;20034;-90
2022/06/17 10:48:33;;;;;;;8.25;4.00;;;24.50;99.90;;;;;;4990184;28;20038;-91
2022/06/17 10:51:01;;;;;;;9.32;4.60;;;24.60;99.90;;;;;;4984206;28;20097;-90
2022/06/17 10:53:35;;;;;;;7.35;4.10;;;24.70;99.90;;;;;;4986841;28;20045;-91
2022/06/17 10:56:05;;;;;;;7.95;4.05;;;24.70;99.90;;;;;;4973043;28;20050;-90
2022/06/17 10:58:33;;;;;;;8.00;4.07;;;24.80;99.90;;;;;;4972973;28;20042;-90
2022/06/17 11:01:00;;;;;;;7.28;4.10;;;24.90;99.90;;;;;;4990832;28;20092;-91
2022/06/17 11:03:38;;;;;;;7.90;4.03;;;25.10;99.90;;;;;;4972816;28;20076;-92
2022/06/17 11:06:10;;;;;;;8.43;4.15;;;25.00;99.90;;;;;;4988718;28;20054;-91
2022/06/17 11:08:48;;;;;;;6.88;3.97;;;25.10;99.90;;;;;;4970274;28;20042;-90
2022/06/17 11:14:01;;;;;;;7.95;4.10;;;25.20;99.90;;;;;;4990272;28;20130;-90
2022/06/17 11:16:33;;;;;;;8.25;4.22;;;25.20;99.90;;;;;;5004752;28;20504;-89
2022/06/17 11:19:06;;;;;;;8.15;4.65;;;25.20;99.90;;;;;;5005056;28;20045;-89
2022/06/17 11:21:41;;;;;;;8.32;4.70;;;25.20;99.90;;;;;;4988638;28;20047;-90
2022/06/17 11:24:15;;;;;;;8.93;4.63;;;25.20;99.90;;;;;;4988653;28;20042;-88
2022/06/17 11:26:41;;;;;;;8.07;4.57;;;25.20;99.90;;;;;;4987198;28;20422;-91
2022/06/17 11:29:22;;;;;;;8.23;4.50;;;25.20;99.90;;;;;;4993464;28;20137;-91
2022/06/17 11:31:49;;;;;;;8.57;4.22;;;25.20;99.90;;;;;;4953260;28;20045;-91
2022/06/17 11:34:17;;;;;;;8.65;4.07;;;25.30;99.90;;;;;;4970240;28;20050;-89
2022/06/17 11:36:58;;;;;;;8.57;4.60;;;25.30;99.90;;;;;;4970052;28;20345;-90
2022/06/17 11:39:25;;;;;;;9.25;4.20;;;25.40;99.90;;;;;;4975023;28;20048;-90
2022/06/17 11:41:51;;;;;;;8.73;3.85;;;25.50;99.90;;;;;;4988199;28;20077;-91
2022/06/17 11:44:17;;;;;;;8.25;4.63;;;25.60;99.90;;;;;;4987091;28;20454;-90
2022/06/17 11:47:01;;;;;;;8.23;4.55;;;25.70;99.90;;;;;;4988399;28;20501;-91
2022/06/17 11:49:32;;;;;;;6.78;4.00;;;25.70;99.90;;;;;;4971494;28;20078;-89
2022/06/17 11:52:02;;;;;;;;;;;25.80;99.90;;;;;;4989399;28;20050;-88
2022/06/17 11:54:49;;;;;;;7.72;4.50;;;25.70;99.90;;;;;;4988308;28;19921;-89
2022/06/17 11:57:32;;;;;;;8.65;4.80;;;25.80;99.90;;;;;;4987555;28;20082;-89
2022/06/17 12:00:03;;;;;;;7.72;4.10;;;25.80;99.90;;;;;;4988047;28;20496;-91
2022/06/17 12:02:29;;;;;;;8.73;5.40;;;25.80;99.90;;;;;;4991004;28;20043;-88
2022/06/17 12:05:09;;;;;;;8.68;4.82;;;25.90;99.90;;;;;;4994268;28;20040;-89
2022/06/17 12:08:01;;;;;;;9.77;5.13;;;25.90;99.90;;;;;;4993731;28;20041;-90
2022/06/17 12:10:46;;;;;;;9.40;5.53;;;25.90;99.90;;;;;;4975975;28;20403;-90
2022/06/17 12:13:27;;;;;;;8.30;4.35;;;25.80;99.90;;;;;;4992257;28;20051;-89
2022/06/17 12:16:09;;;;;;;8.38;4.15;;;25.80;99.90;;;;;;4990395;28;20129;-90
2022/06/17 12:18:43;;;;;;;7.63;4.20;;;25.80;99.90;;;;;;4975584;28;20081;-88
2022/06/17 12:21:33;;;;;;;8.60;4.35;;;25.90;99.90;;;;;;4993251;28;20053;-88
2022/06/17 12:24:30;;;;;;;9.03;4.43;;;25.90;99.90;;;;;;4991525;28;20049;-88
2022/06/17 12:27:01;;;;;;;7.70;4.32;;;25.90;99.60;;;;;;4976214;28;20101;-91
2022/06/17 12:29:35;;;;;;;8.02;4.53;;;25.90;99.90;;;;;;4992848;28;20038;-90
2022/06/17 12:32:15;;;;;;;8.88;4.70;;;26.00;99.70;;;;;;4991755;28;20046;-88
2022/06/17 12:35:08;;;;;;;8.77;4.32;;;26.10;99.60;;;;;;4973161;28;20042;-89
2022/06/17 12:37:47;;;;;;;9.23;4.32;;;26.20;99.40;;;;;;4975539;28;20101;-89
2022/06/17 12:40:37;;;;;;;8.10;4.45;;;26.20;99.50;;;;;;4992038;28;20042;-88
2022/06/17 12:43:30;;;;;;;7.57;4.53;;;26.20;99.80;;;;;;4974417;28;20046;-88
2022/06/17 12:46:14;;;;;;;8.15;4.30;;;26.10;99.30;;;;;;4989302;28;20054;-87
2022/06/17 12:55:13;;;;;;;8.60;4.22;;;26.20;98.40;;;;;;4991707;28;20101;-88
2022/06/17 12:57:49;;;;;;;7.13;3.47;;;26.20;97.70;;;;;;4991420;28;20430;-89
2022/06/17 13:00:36;;;;;;;8.65;3.90;;;26.30;97.80;;;;;;4974975;28;20449;-89
2022/06/17 13:03:27;;;;;;;7.20;3.60;;;26.40;98.40;;;;;;4989994;28;20050;-89
2022/06/17 13:05:58;;;;;;;9.32;3.92;;;26.50;97.80;;;;;;4992947;28;20158;-88
2022/06/17 13:08:42;;;;;;;7.57;3.80;;;26.60;97.70;;;;;;4990994;28;20124;-87
2022/06/17 13:11:16;;;;;;;8.27;4.20;;;26.70;96.90;;;;;;4991005;28;20180;-88
2022/06/17 13:14:11;;;;;;;7.20;3.78;;;26.70;97.20;;;;;;4990958;28;20128;-88
2022/06/17 13:16:45;;;;;;;6.78;3.63;;;26.80;96.40;;;;;;4990398;28;20085;-89
2022/06/17 13:19:41;;;;;;;8.13;3.50;;;26.80;97.00;;;;;;4989773;28;20046;-88
2022/06/17 13:22:17;;;;;;;7.70;4.65;;;26.80;96.90;;;;;;4992600;28;20070;-90
2022/06/17 13:25:10;;;;;;;6.90;3.50;;;26.80;97.20;;;;;;4991974;28;20050;-90